Time;durP1;ratioP1;P1;durP2;ratioP2;P2;SDS_P1;SDS_P2;PMS_P1;PMS_P2;Temp;Humidity;BMP_temperature;BMP_pressure;BME280_temperature;BME280_humidity;BME280_pressure;Samples;Min_cycle;Max_cycle;Signal;HPM_P1;HPM_P2
2022/08/30 00:03:06;;;;;;;17.45;11.10;;;15.90;99.90;;;;;;5053838;28;20060;-66
2022/08/30 00:05:33;;;;;;;16.38;11.82;;;15.90;99.90;;;;;;5052369;28;20404;-66
2022/08/30 00:07:59;;;;;;;16.52;11.18;;;15.80;99.90;;;;;;5053483;28;20062;-66
2022/08/30 00:10:27;;;;;;;14.57;10.73;;;15.80;99.90;;;;;;5052300;28;20110;-66
2022/08/30 00:12:53;;;;;;;17.52;11.07;;;15.80;99.90;;;;;;5053589;28;20056;-66
2022/08/30 00:15:19;;;;;;;14.25;10.60;;;15.80;99.90;;;;;;5052256;28;20029;-66
2022/08/30 00:17:45;;;;;;;14.90;11.63;;;15.70;99.90;;;;;;5052472;28;20065;-66
2022/08/30 00:20:14;;;;;;;19.55;11.98;;;15.70;99.90;;;;;;5053482;28;20558;-66
2022/08/30 00:22:40;;;;;;;;;;;15.70;99.90;;;;;;5052571;28;20028;-66
2022/08/30 00:25:06;;;;;;;13.32;11.30;;;15.70;99.90;;;;;;5053500;28;19904;-66
2022/08/30 00:27:32;;;;;;;14.43;11.00;;;15.60;99.90;;;;;;5053301;28;20035;-66
2022/08/30 00:29:58;;;;;;;13.75;11.57;;;15.60;99.90;;;;;;5053149;28;20079;-66
2022/08/30 00:32:24;;;;;;;13.52;10.57;;;15.60;99.90;;;;;;5053428;28;20029;-66
2022/08/30 00:34:52;;;;;;;15.98;11.82;;;15.50;99.90;;;;;;5053351;28;20033;-66
2022/08/30 00:37:18;;;;;;;14.98;11.25;;;15.50;99.90;;;;;;5053516;28;20108;-66
2022/08/30 00:39:44;;;;;;;16.23;12.00;;;15.50;99.90;;;;;;5054165;28;20075;-67
2022/08/30 00:42:11;;;;;;;14.98;11.52;;;15.50;99.90;;;;;;5054081;28;20457;-66
2022/08/30 00:44:37;;;;;;;15.38;11.20;;;15.50;99.90;;;;;;5053907;28;20048;-67
2022/08/30 00:47:03;;;;;;;16.42;11.55;;;15.50;99.90;;;;;;5052612;28;20033;-66
2022/08/30 00:49:31;;;;;;;19.35;11.63;;;15.50;99.90;;;;;;5052873;28;20036;-66
2022/08/30 00:51:57;;;;;;;16.95;11.27;;;15.50;99.90;;;;;;5053932;28;20078;-66
2022/08/30 00:54:24;;;;;;;17.92;11.07;;;15.40;99.90;;;;;;5052947;28;20025;-66
2022/08/30 00:56:51;;;;;;;16.73;11.38;;;15.40;99.90;;;;;;5052850;28;20037;-66
2022/08/30 00:59:17;;;;;;;17.00;11.50;;;15.40;99.90;;;;;;5052832;28;20029;-66
2022/08/30 01:01:44;;;;;;;16.50;11.25;;;15.40;99.90;;;;;;5052798;28;20053;-66
2022/08/30 01:04:10;;;;;;;15.27;10.60;;;15.40;99.90;;;;;;5054077;28;20088;-66
2022/08/30 01:06:38;;;;;;;13.18;11.32;;;15.30;99.90;;;;;;5056667;28;20159;-66
2022/08/30 01:09:05;;;;;;;16.13;10.40;;;15.30;99.90;;;;;;5055667;28;20372;-66
2022/08/30 01:11:33;;;;;;;13.73;10.10;;;15.30;99.90;;;;;;5056327;28;20025;-66
2022/08/30 01:14:01;;;;;;;16.02;10.90;;;15.30;99.90;;;;;;5056540;28;20025;-66
2022/08/30 01:16:28;;;;;;;16.48;10.60;;;15.30;99.90;;;;;;5055198;28;20033;-66
2022/08/30 01:18:57;;;;;;;17.00;11.23;;;15.20;99.90;;;;;;5056169;28;20072;-66
2022/08/30 01:21:25;;;;;;;15.30;11.10;;;15.20;99.90;;;;;;5056131;28;20392;-66
2022/08/30 01:23:54;;;;;;;14.33;9.97;;;15.20;99.90;;;;;;5056401;28;20032;-66
2022/08/30 01:26:20;;;;;;;;;;;15.10;99.90;;;;;;5056770;28;20025;-66
2022/08/30 01:28:49;;;;;;;14.45;10.90;;;15.10;99.90;;;;;;5056268;28;20038;-66
2022/08/30 01:31:15;;;;;;;13.10;10.63;;;15.10;99.90;;;;;;5055990;28;20465;-66
2022/08/30 01:33:41;;;;;;;15.65;11.60;;;15.10;99.90;;;;;;5056134;28;20036;-66
2022/08/30 01:36:11;;;;;;;16.90;11.07;;;15.10;99.90;;;;;;5054830;28;20025;-66
2022/08/30 01:38:40;;;;;;;14.35;10.57;;;15.10;99.90;;;;;;5054852;28;20053;-66
2022/08/30 01:41:17;;;;;;;18.23;11.68;;;15.00;99.90;;;;;;5055801;28;20469;-66
2022/08/30 01:43:43;;;;;;;16.35;11.80;;;15.00;99.90;;;;;;5055159;28;20420;-66
2022/08/30 01:46:10;;;;;;;15.98;11.05;;;15.00;99.90;;;;;;5054603;28;20469;-66
2022/08/30 01:48:37;;;;;;;18.67;11.20;;;15.00;99.90;;;;;;5054589;28;20025;-66
2022/08/30 01:51:03;;;;;;;16.45;10.43;;;15.00;99.90;;;;;;5054307;28;20025;-66
2022/08/30 01:53:29;;;;;;;14.93;10.95;;;15.00;99.90;;;;;;5055810;28;20029;-66
2022/08/30 01:55:54;;;;;;;15.85;11.48;;;15.00;99.90;;;;;;5055736;28;20480;-66
2022/08/30 01:58:22;;;;;;;12.48;10.82;;;15.10;99.90;;;;;;5056060;28;20029;-66
2022/08/30 02:00:48;;;;;;;13.77;10.40;;;15.10;99.90;;;;;;5055655;28;20079;-66
2022/08/30 02:03:13;;;;;;;15.40;10.60;;;15.10;99.90;;;;;;5055296;28;20456;-66
2022/08/30 02:05:39;;;;;;;11.98;9.70;;;15.10;99.90;;;;;;5054247;28;20029;-66
2022/08/30 02:08:04;;;;;;;13.05;9.93;;;15.10;99.90;;;;;;5055411;28;20028;-66
2022/08/30 02:10:30;;;;;;;13.63;10.85;;;15.10;99.90;;;;;;5053882;28;20029;-66
2022/08/30 02:12:56;;;;;;;17.70;10.75;;;15.10;99.90;;;;;;5054156;28;20029;-66
2022/08/30 02:15:22;;;;;;;11.90;10.40;;;15.00;99.90;;;;;;5054463;28;20094;-66
2022/08/30 02:17:47;;;;;;;12.63;10.13;;;15.00;99.90;;;;;;5054894;28;20466;-66
2022/08/30 02:20:13;;;;;;;17.95;11.23;;;15.10;99.90;;;;;;5054026;28;20025;-66
2022/08/30 02:22:39;;;;;;;14.95;10.93;;;15.10;99.90;;;;;;5055274;28;20025;-66
2022/08/30 02:25:07;;;;;;;14.60;10.82;;;15.10;99.90;;;;;;5055179;28;20065;-66
2022/08/30 02:27:33;;;;;;;16.20;11.57;;;15.00;99.90;;;;;;5055320;28;20464;-66
2022/08/30 02:29:59;;;;;;;15.55;10.48;;;15.00;99.90;;;;;;5055070;28;20029;-66
2022/08/30 02:32:24;;;;;;;11.30;9.75;;;15.00;99.90;;;;;;5054777;28;20109;-66
2022/08/30 02:34:50;;;;;;;13.98;10.02;;;15.00;99.90;;;;;;5054937;28;20079;-66
2022/08/30 02:37:16;;;;;;;15.02;9.88;;;14.90;99.90;;;;;;5053415;28;20412;-66
2022/08/30 02:39:41;;;;;;;11.38;10.15;;;14.90;99.90;;;;;;5053659;28;20024;-66
2022/08/30 02:42:07;;;;;;;13.35;10.52;;;14.90;99.90;;;;;;5054573;28;20024;-66
2022/08/30 02:44:33;;;;;;;14.27;11.50;;;14.80;99.90;;;;;;5055118;28;20029;-66
2022/08/30 02:46:58;;;;;;;20.98;10.52;;;14.80;99.90;;;;;;5054430;28;20487;-66
2022/08/30 02:49:24;;;;;;;15.70;10.60;;;14.80;99.90;;;;;;5053444;28;20029;-66
2022/08/30 02:51:50;;;;;;;14.80;10.85;;;14.80;99.90;;;;;;5054709;28;20064;-66
2022/08/30 02:54:18;;;;;;;14.25;10.43;;;14.70;99.90;;;;;;5054380;28;20077;-66
2022/08/30 02:56:46;;;;;;;11.18;9.98;;;14.70;99.90;;;;;;5054407;28;20021;-66
2022/08/30 02:59:12;;;;;;;13.93;10.10;;;14.70;99.90;;;;;;5054942;28;20052;-66
2022/08/30 03:01:38;;;;;;;13.32;10.25;;;14.70;99.90;;;;;;5054060;28;20150;-66
2022/08/30 03:04:04;;;;;;;17.27;10.65;;;14.60;99.90;;;;;;5054503;28;20061;-66
2022/08/30 03:06:31;;;;;;;15.93;10.90;;;14.60;99.90;;;;;;5054304;28;20036;-66
2022/08/30 03:08:56;;;;;;;14.20;10.90;;;14.60;99.90;;;;;;5054080;28;20473;-66
2022/08/30 03:11:22;;;;;;;16.45;11.23;;;14.60;99.90;;;;;;5053067;28;20075;-66
2022/08/30 03:13:48;;;;;;;14.95;10.85;;;14.60;99.90;;;;;;5053151;28;20025;-66
2022/08/30 03:16:13;;;;;;;14.85;11.20;;;14.60;99.90;;;;;;5054246;28;20029;-66
2022/08/30 03:18:41;;;;;;;14.27;9.80;;;14.60;99.90;;;;;;5054215;28;20068;-66
2022/08/30 03:21:15;;;;;;;14.27;10.35;;;14.60;99.90;;;;;;5053957;28;20576;-66
2022/08/30 03:23:41;;;;;;;13.73;10.73;;;14.50;99.90;;;;;;5052579;28;20029;-66
2022/08/30 03:26:09;;;;;;;18.33;10.93;;;14.50;99.90;;;;;;5052697;28;20072;-66
2022/08/30 03:28:35;;;;;;;19.42;11.20;;;14.50;99.90;;;;;;5053932;28;20079;-66
2022/08/30 03:31:01;;;;;;;17.60;11.85;;;14.50;99.90;;;;;;5053699;28;20017;-66
2022/08/30 03:33:26;;;;;;;17.15;11.52;;;14.50;99.90;;;;;;5052660;28;20071;-66
2022/08/30 03:35:52;;;;;;;15.20;11.07;;;14.50;99.90;;;;;;5053953;28;20029;-66
2022/08/30 03:38:18;;;;;;;14.23;10.43;;;14.50;99.90;;;;;;5053688;28;20029;-66
2022/08/30 03:40:43;;;;;;;15.82;11.30;;;14.50;99.90;;;;;;5052591;28;20063;-66
2022/08/30 03:43:09;;;;;;;14.07;10.90;;;14.50;99.90;;;;;;5053845;28;20082;-66
2022/08/30 03:45:35;;;;;;;16.40;12.75;;;14.50;99.90;;;;;;5053797;28;20025;-66
2022/08/30 03:48:01;;;;;;;13.65;11.45;;;14.50;99.90;;;;;;5053727;28;20492;-66
2022/08/30 03:50:29;;;;;;;15.68;12.00;;;14.50;99.90;;;;;;5053776;28;20104;-66
2022/08/30 03:52:55;;;;;;;15.93;11.65;;;14.50;99.90;;;;;;5053920;28;20449;-66
2022/08/30 03:55:21;;;;;;;16.05;11.35;;;14.50;99.90;;;;;;5053384;28;20040;-66
2022/08/30 03:57:46;;;;;;;14.48;11.20;;;14.50;99.90;;;;;;5052381;28;20457;-66
2022/08/30 04:00:14;;;;;;;15.73;11.50;;;14.50;99.90;;;;;;5053619;28;20029;-66
2022/08/30 04:02:40;;;;;;;14.45;10.80;;;14.50;99.90;;;;;;5053579;28;20496;-66
2022/08/30 04:05:08;;;;;;;15.43;11.25;;;14.50;99.90;;;;;;5053604;28;20033;-66
2022/08/30 04:07:34;;;;;;;22.25;12.30;;;14.40;99.90;;;;;;5052207;28;20048;-66
2022/08/30 04:10:00;;;;;;;17.27;11.88;;;14.40;99.90;;;;;;5053859;28;20033;-66
2022/08/30 04:12:26;;;;;;;15.80;11.60;;;14.40;99.90;;;;;;5053503;28;20025;-66
2022/08/30 04:14:51;;;;;;;14.73;10.10;;;14.40;99.90;;;;;;5052160;28;20055;-66
2022/08/30 04:17:17;;;;;;;14.40;10.20;;;14.40;99.90;;;;;;5053520;28;20111;-66
2022/08/30 04:19:43;;;;;;;16.63;10.55;;;14.40;99.90;;;;;;5052156;28;20483;-66
2022/08/30 04:22:09;;;;;;;15.77;10.30;;;14.40;99.90;;;;;;5053440;28;20025;-65
2022/08/30 04:24:37;;;;;;;18.02;10.90;;;14.40;99.90;;;;;;5053177;28;20029;-65
2022/08/30 04:27:03;;;;;;;17.63;12.05;;;14.50;99.90;;;;;;5052432;28;20032;-65
2022/08/30 04:29:29;;;;;;;18.23;11.55;;;14.50;99.90;;;;;;5052121;28;20083;-65
2022/08/30 04:31:55;;;;;;;15.45;11.02;;;14.60;99.90;;;;;;5053450;28;20029;-65
2022/08/30 04:34:20;;;;;;;16.00;10.65;;;14.60;99.90;;;;;;5051947;28;20039;-65
2022/08/30 04:36:48;;;;;;;17.50;11.48;;;14.60;99.90;;;;;;5051981;28;20029;-65
2022/08/30 04:39:14;;;;;;;16.85;11.05;;;14.60;99.90;;;;;;5053151;28;20125;-65
2022/08/30 04:41:39;;;;;;;14.15;11.68;;;14.60;99.90;;;;;;5057207;28;20112;-60
2022/08/30 04:44:06;;;;;;;17.27;11.05;;;14.70;99.90;;;;;;5056809;28;20456;-60
2022/08/30 04:46:34;;;;;;;18.90;12.43;;;14.70;99.90;;;;;;5056905;28;20032;-66
2022/08/30 04:49:00;;;;;;;18.67;10.98;;;14.70;99.90;;;;;;5056968;28;20025;-66
2022/08/30 04:51:25;;;;;;;16.95;10.63;;;14.80;99.90;;;;;;5056952;28;20074;-64
2022/08/30 04:53:51;;;;;;;17.27;11.15;;;14.80;99.90;;;;;;5056885;28;20104;-66
2022/08/30 04:56:23;;;;;;;14.57;11.07;;;14.80;99.90;;;;;;5057061;28;20107;-65
2022/08/30 04:58:51;;;;;;;16.20;10.93;;;14.80;99.90;;;;;;5055681;28;20025;-66
2022/08/30 05:01:19;;;;;;;14.70;10.50;;;14.80;99.90;;;;;;5056499;28;20087;-66
2022/08/30 05:03:46;;;;;;;12.80;9.73;;;14.90;99.90;;;;;;5056928;28;20057;-65
2022/08/30 05:06:12;;;;;;;15.60;10.20;;;14.90;99.90;;;;;;5055530;28;20033;-65
2022/08/30 05:08:38;;;;;;;14.10;11.68;;;15.00;99.90;;;;;;5056315;28;20029;-66
2022/08/30 05:11:06;;;;;;;14.57;10.60;;;15.10;99.90;;;;;;5056611;28;20017;-65
2022/08/30 05:13:32;;;;;;;14.23;10.52;;;15.10;99.90;;;;;;5056264;28;20021;-65
2022/08/30 05:15:59;;;;;;;14.63;10.90;;;15.10;99.90;;;;;;5056404;28;20419;-65
2022/08/30 05:18:25;;;;;;;16.55;10.85;;;15.20;99.90;;;;;;5056405;28;20032;-65
2022/08/30 05:21:21;;;;;;;13.35;9.75;;;15.30;99.90;;;;;;5054697;28;20531;-65
2022/08/30 05:23:49;;;;;;;13.63;9.63;;;15.40;99.90;;;;;;5055477;28;20067;-65
2022/08/30 05:26:21;;;;;;;15.35;9.55;;;15.40;99.90;;;;;;5054777;28;20184;-66
2022/08/30 05:28:47;;;;;;;13.02;8.73;;;15.50;99.90;;;;;;5056232;28;20051;-66
2022/08/30 05:31:17;;;;;;;11.43;9.55;;;15.60;99.90;;;;;;5056106;28;20029;-66
2022/08/30 05:33:44;;;;;;;14.43;9.63;;;15.60;99.90;;;;;;5054942;28;20021;-65
2022/08/30 05:36:11;;;;;;;18.02;9.48;;;15.70;99.90;;;;;;5056110;28;20033;-64
2022/08/30 05:38:37;;;;;;;12.48;8.68;;;15.80;99.90;;;;;;5055991;28;20033;-64
2022/08/30 05:41:03;;;;;;;13.13;9.18;;;15.90;99.90;;;;;;5056170;28;20025;-65
2022/08/30 05:43:29;;;;;;;10.70;8.80;;;16.00;99.90;;;;;;5055833;28;20025;-66
2022/08/30 05:45:59;;;;;;;17.65;8.93;;;16.10;99.90;;;;;;5055871;28;20147;-66
2022/08/30 05:48:25;;;;;;;12.18;8.10;;;16.20;99.90;;;;;;5055856;28;20082;-66
2022/08/30 05:50:59;;;;;;;18.10;7.80;;;16.30;99.90;;;;;;5055924;28;20403;-67
2022/08/30 05:53:25;;;;;;;10.02;7.85;;;16.50;99.90;;;;;;5055645;28;20021;-66
2022/08/30 05:55:51;;;;;;;11.57;7.05;;;16.80;99.90;;;;;;5055700;28;20025;-66
2022/08/30 05:58:17;;;;;;;10.45;7.57;;;17.30;99.90;;;;;;5055614;28;20025;-66
2022/08/30 06:00:43;;;;;;;10.73;6.35;;;17.70;99.90;;;;;;5055373;28;20525;-66
2022/08/30 06:03:11;;;;;;;11.52;6.38;;;18.20;99.90;;;;;;5055601;28;20045;-66
2022/08/30 06:05:36;;;;;;;9.23;5.27;;;18.60;99.90;;;;;;5054331;28;20453;-67
2022/08/30 06:08:02;;;;;;;10.35;5.60;;;19.10;99.90;;;;;;5054115;28;20116;-67
2022/08/30 06:10:28;;;;;;;8.98;5.28;;;19.40;99.90;;;;;;5056187;28;20032;-67
2022/08/30 06:12:53;;;;;;;8.13;5.22;;;19.80;99.90;;;;;;5054731;28;20033;-67
2022/08/30 06:15:19;;;;;;;7.65;5.15;;;20.30;99.90;;;;;;5054689;28;20029;-67
2022/08/30 06:17:46;;;;;;;8.00;4.93;;;20.70;99.90;;;;;;5056021;28;20074;-65
2022/08/30 06:20:12;;;;;;;10.48;4.85;;;21.10;99.90;;;;;;5055370;28;20048;-65
2022/08/30 06:22:38;;;;;;;9.75;4.78;;;21.40;99.90;;;;;;5055185;28;20021;-65
2022/08/30 06:25:04;;;;;;;13.43;4.55;;;21.60;99.90;;;;;;5055045;28;20046;-65
2022/08/30 06:27:30;;;;;;;8.10;4.97;;;21.80;99.90;;;;;;5053626;28;20040;-65
2022/08/30 06:29:56;;;;;;;6.80;4.22;;;21.60;99.90;;;;;;5054921;28;20021;-65
2022/08/30 06:32:21;;;;;;;11.25;4.80;;;21.80;99.90;;;;;;5055445;28;20025;-65
2022/08/30 06:34:47;;;;;;;6.93;4.70;;;22.00;99.90;;;;;;5054976;28;20025;-66
2022/08/30 06:37:13;;;;;;;13.52;4.47;;;22.00;99.90;;;;;;5053554;28;20384;-65
2022/08/30 06:39:39;;;;;;;7.00;4.45;;;22.10;99.90;;;;;;5054730;28;20024;-65
2022/08/30 06:42:04;;;;;;;9.32;5.35;;;22.10;99.90;;;;;;5055076;28;20478;-65
2022/08/30 06:44:30;;;;;;;11.43;4.55;;;22.00;99.90;;;;;;5054341;28;20056;-65
2022/08/30 06:46:56;;;;;;;12.30;5.03;;;21.70;99.90;;;;;;5054761;28;20033;-64
2022/08/30 06:49:21;;;;;;;9.05;4.68;;;21.60;99.90;;;;;;5055078;28;20037;-60
2022/08/30 06:51:47;;;;;;;7.13;3.50;;;21.70;99.90;;;;;;5054611;28;20025;-60
2022/08/30 06:54:12;;;;;;;6.22;3.83;;;21.80;99.90;;;;;;5054513;28;20032;-62
2022/08/30 06:56:39;;;;;;;15.05;4.05;;;22.00;99.90;;;;;;5054812;28;20037;-60
2022/08/30 06:59:05;;;;;;;8.30;4.07;;;22.30;99.90;;;;;;5054570;28;20105;-59
2022/08/30 07:01:31;;;;;;;6.57;3.60;;;22.60;99.90;;;;;;5053567;28;20064;-60
2022/08/30 07:03:59;;;;;;;6.53;3.70;;;22.90;99.90;;;;;;5054472;28;20029;-62
2022/08/30 07:06:26;;;;;;;9.63;3.80;;;23.20;99.90;;;;;;5054370;28;20123;-62
2022/08/30 07:08:52;;;;;;;9.52;3.88;;;23.40;99.90;;;;;;5054393;28;20096;-63
2022/08/30 07:11:26;;;;;;;8.23;3.67;;;23.60;99.90;;;;;;5054283;28;20029;-70
2022/08/30 07:13:52;;;;;;;5.60;3.67;;;23.60;99.90;;;;;;5054033;28;20411;-59
2022/08/30 07:16:17;;;;;;;9.02;3.83;;;23.30;99.90;;;;;;5054319;28;20033;-60
2022/08/30 07:18:55;;;;;;;10.00;3.92;;;23.00;99.90;;;;;;5054606;28;20028;-59
2022/08/30 07:21:35;;;;;;;8.15;3.55;;;22.60;99.90;;;;;;5054247;28;20097;-60
2022/08/30 07:24:02;;;;;;;10.32;4.10;;;22.50;99.90;;;;;;5054348;28;20048;-59
2022/08/30 07:26:34;;;;;;;9.52;3.97;;;22.80;99.90;;;;;;5053690;28;20045;-59
2022/08/30 07:29:01;;;;;;;11.90;4.07;;;23.30;99.90;;;;;;5053978;28;20376;-59
2022/08/30 07:31:26;;;;;;;7.47;3.95;;;23.30;99.90;;;;;;5054030;28;20067;-60
2022/08/30 07:33:52;;;;;;;8.10;3.50;;;23.40;99.90;;;;;;5053982;28;20094;-59
2022/08/30 07:36:20;;;;;;;8.98;3.72;;;23.20;99.90;;;;;;5054243;28;20098;-59
2022/08/30 07:38:47;;;;;;;5.90;3.80;;;23.00;99.90;;;;;;5053882;28;20060;-59
2022/08/30 07:41:25;;;;;;;9.80;4.10;;;22.80;99.90;;;;;;5053954;28;20040;-59
2022/08/30 07:43:51;;;;;;;14.30;3.92;;;22.60;99.90;;;;;;5053740;28;20032;-59
2022/08/30 07:46:18;;;;;;;9.60;3.70;;;22.70;99.90;;;;;;5053376;28;20033;-59
2022/08/30 07:48:44;;;;;;;5.80;3.58;;;22.80;99.90;;;;;;5053672;28;20457;-59
2022/08/30 07:51:16;;;;;;;9.38;3.58;;;22.90;99.90;;;;;;5053569;28;20571;-59
2022/08/30 07:53:42;;;;;;;6.95;3.50;;;23.00;99.90;;;;;;5053395;28;20147;-59
2022/08/30 07:56:08;;;;;;;8.77;4.10;;;23.00;99.90;;;;;;5053516;28;20480;-59
2022/08/30 07:58:36;;;;;;;10.13;3.60;;;23.00;99.90;;;;;;5052358;28;20060;-59
2022/08/30 08:01:03;;;;;;;9.45;3.90;;;23.00;99.90;;;;;;5053550;28;20159;-59
2022/08/30 08:03:29;;;;;;;8.50;3.58;;;23.30;99.90;;;;;;5053859;28;20079;-59
2022/08/30 08:05:56;;;;;;;10.52;4.13;;;23.30;99.90;;;;;;5053157;28;20025;-59
2022/08/30 08:08:22;;;;;;;8.48;3.70;;;23.40;99.90;;;;;;5053571;28;20459;-59
2022/08/30 08:10:48;;;;;;;8.07;3.78;;;23.70;99.90;;;;;;5053303;28;20032;-59
2022/08/30 08:13:13;;;;;;;10.50;3.90;;;24.00;99.90;;;;;;5052295;28;20388;-59
2022/08/30 08:15:39;;;;;;;9.40;3.85;;;24.30;99.90;;;;;;5057180;28;20476;-59
2022/08/30 08:18:05;;;;;;;8.35;3.42;;;24.60;99.90;;;;;;5057906;28;20037;-59
2022/08/30 08:20:32;;;;;;;10.30;3.30;;;24.80;99.90;;;;;;5058455;28;20028;-59
2022/08/30 08:22:58;;;;;;;9.90;4.22;;;25.10;99.90;;;;;;5058007;28;20025;-60
2022/08/30 08:25:24;;;;;;;8.43;3.63;;;25.50;99.30;;;;;;5056265;28;20036;-59
2022/08/30 08:27:50;;;;;;;9.52;3.70;;;25.80;98.40;;;;;;5057268;28;20086;-60
2022/08/30 08:30:21;;;;;;;8.68;3.97;;;26.20;97.80;;;;;;5057260;28;20043;-59
2022/08/30 08:32:47;;;;;;;7.70;3.38;;;26.40;96.20;;;;;;5057059;28;20411;-61
2022/08/30 08:35:14;;;;;;;5.88;2.88;;;26.50;95.30;;;;;;5057292;28;20025;-59
2022/08/30 08:37:40;;;;;;;6.50;3.13;;;26.80;94.40;;;;;;5057113;28;20437;-60
2022/08/30 08:40:07;;;;;;;6.07;3.03;;;27.30;93.50;;;;;;5055922;28;20025;-59
2022/08/30 08:42:58;;;;;;;5.88;3.08;;;27.40;92.80;;;;;;5057267;28;20028;-62
2022/08/30 08:45:31;;;;;;;8.88;3.53;;;27.20;91.90;;;;;;5057208;28;20037;-59
2022/08/30 08:48:05;;;;;;;5.28;2.85;;;27.60;92.10;;;;;;5057098;28;20041;-60
2022/08/30 08:50:31;;;;;;;5.28;2.95;;;28.30;90.10;;;;;;5056758;28;20056;-62
2022/08/30 08:53:34;;;;;;;4.80;2.42;;;28.70;87.40;;;;;;5056698;28;20025;-61
2022/08/30 08:56:02;;;;;;;4.47;2.70;;;28.80;82.80;;;;;;5056718;28;20052;-60
2022/08/30 08:58:31;;;;;;;5.97;3.00;;;28.80;81.70;;;;;;5056645;28;20509;-62
2022/08/30 09:00:57;;;;;;;4.78;3.35;;;28.80;80.10;;;;;;5056621;28;20029;-61
2022/08/30 09:03:27;;;;;;;3.03;2.60;;;29.00;78.10;;;;;;5057379;28;20061;-61
2022/08/30 09:05:54;;;;;;;3.88;2.50;;;28.90;77.60;;;;;;5056733;28;20484;-61
2022/08/30 09:08:22;;;;;;;3.03;2.45;;;29.00;74.40;;;;;;5056684;28;20138;-61
2022/08/30 09:10:58;;;;;;;8.57;2.75;;;29.30;74.90;;;;;;5056199;28;20025;-61
2022/08/30 09:13:24;;;;;;;3.53;2.05;;;29.70;71.80;;;;;;5056246;28;20087;-61
2022/08/30 09:15:53;;;;;;;5.57;2.70;;;29.70;69.40;;;;;;5056559;28;20021;-61
2022/08/30 09:18:18;;;;;;;2.65;1.70;;;29.80;69.50;;;;;;5056520;28;20060;-61
2022/08/30 09:20:47;;;;;;;6.25;2.17;;;30.30;62.10;;;;;;5056415;28;20461;-61
2022/08/30 09:23:28;;;;;;;2.40;1.77;;;30.60;61.30;;;;;;5056099;28;20025;-61
2022/08/30 09:25:59;;;;;;;4.97;1.70;;;30.60;58.10;;;;;;5055784;28;20029;-61
2022/08/30 09:28:48;;;;;;;3.58;1.98;;;30.50;56.90;;;;;;5056083;28;20025;-61
2022/08/30 09:31:24;;;;;;;4.55;2.03;;;29.90;57.30;;;;;;5056444;28;20029;-61
2022/08/30 09:34:20;;;;;;;5.70;1.98;;;30.00;57.20;;;;;;5056271;28;20036;-61
2022/08/30 09:36:51;;;;;;;4.68;2.30;;;30.80;55.50;;;;;;5051180;28;20048;-61
2022/08/30 09:39:18;;;;;;;4.15;1.77;;;31.60;55.90;;;;;;5056302;28;20103;-61
2022/08/30 09:41:48;;;;;;;5.47;2.20;;;31.80;53.40;;;;;;5055776;28;20025;-61
2022/08/30 09:44:20;;;;;;;4.75;2.70;;;31.50;52.50;;;;;;5055716;28;20025;-61
2022/08/30 09:46:53;;;;;;;4.07;2.17;;;31.40;51.90;;;;;;5055610;28;20033;-61
2022/08/30 09:49:41;;;;;;;4.20;2.30;;;31.20;53.00;;;;;;5056007;28;20079;-61
2022/08/30 09:52:16;;;;;;;4.20;1.70;;;31.40;53.10;;;;;;5055892;28;20036;-61
2022/08/30 09:54:58;;;;;;;3.35;2.00;;;31.40;52.40;;;;;;5055810;28;20032;-61
2022/08/30 09:57:31;;;;;;;3.10;1.60;;;31.50;51.70;;;;;;5055650;28;20421;-61
2022/08/30 10:00:00;;;;;;;5.72;1.98;;;31.50;50.90;;;;;;5055743;28;20032;-61
2022/08/30 10:02:45;;;;;;;5.13;1.85;;;32.10;52.40;;;;;;5055344;28;20509;-61
2022/08/30 10:05:15;;;;;;;3.65;1.92;;;32.30;50.00;;;;;;5055397;28;20021;-61
2022/08/30 10:08:05;;;;;;;5.32;1.88;;;32.20;49.80;;;;;;5055494;28;20473;-61
2022/08/30 10:10:40;;;;;;;4.28;2.10;;;32.40;49.40;;;;;;5055199;28;20404;-61
2022/08/30 10:14:06;;;;;;;3.00;1.90;;;32.80;51.00;;;;;;5055736;28;20053;-61
2022/08/30 10:17:09;;;;;;;4.45;1.88;;;32.80;48.70;;;;;;4940981;28;20044;-61
2022/08/30 10:20:08;;;;;;;3.90;2.38;;;32.60;49.20;;;;;;4974560;28;20114;-61
2022/08/30 10:22:39;;;;;;;6.65;2.20;;;32.30;49.50;;;;;;4974482;28;20544;-61
2022/08/30 10:25:22;;;;;;;4.18;2.38;;;32.60;49.30;;;;;;4974248;28;20074;-61
2022/08/30 10:28:02;;;;;;;4.63;1.92;;;32.80;49.10;;;;;;4974560;28;20126;-61
2022/08/30 10:30:31;;;;;;;4.47;2.28;;;33.30;48.30;;;;;;4974614;28;20023;-61
2022/08/30 10:33:10;;;;;;;4.90;1.88;;;33.40;48.40;;;;;;4974034;28;20035;-61
2022/08/30 10:35:48;;;;;;;4.38;2.40;;;32.90;49.30;;;;;;4973997;28;20158;-61
2022/08/30 10:38:22;;;;;;;4.55;2.42;;;32.40;49.70;;;;;;4973377;28;20146;-61
2022/08/30 10:41:12;;;;;;;4.20;2.08;;;31.50;51.10;;;;;;4974144;28;20049;-62
2022/08/30 10:43:52;;;;;;;4.03;2.22;;;31.90;50.60;;;;;;4973879;28;20135;-61
2022/08/30 10:46:38;;;;;;;6.55;2.67;;;32.30;50.60;;;;;;4973813;28;20070;-61
2022/08/30 10:49:11;;;;;;;4.47;2.20;;;33.00;49.50;;;;;;4973245;28;20533;-61
2022/08/30 10:51:45;;;;;;;6.38;2.58;;;33.60;49.50;;;;;;4974727;28;20113;-61
2022/08/30 10:54:35;;;;;;;4.05;2.10;;;34.00;47.90;;;;;;5054699;28;20074;-61
2022/08/30 10:57:01;;;;;;;3.60;2.10;;;33.30;47.00;;;;;;5054597;28;20037;-61
2022/08/30 10:59:27;;;;;;;5.50;2.25;;;32.20;48.50;;;;;;5054284;28;20085;-61
2022/08/30 11:02:16;;;;;;;5.47;1.95;;;31.90;49.20;;;;;;5054194;28;20465;-69
2022/08/30 11:05:19;;;;;;;5.57;2.08;;;32.20;48.00;;;;;;5034253;28;20052;-68
2022/08/30 11:08:10;;;;;;;4.07;2.17;;;33.30;47.90;;;;;;5054500;28;20029;-69
2022/08/30 11:11:00;;;;;;;5.35;2.05;;;34.70;46.30;;;;;;5053591;28;20033;-69
2022/08/30 11:13:29;;;;;;;3.95;2.25;;;35.30;44.40;;;;;;5053185;28;20036;-69
2022/08/30 11:16:01;;;;;;;3.47;2.13;;;36.20;43.90;;;;;;5054323;28;20021;-69
2022/08/30 11:18:31;;;;;;;2.63;1.90;;;36.80;42.30;;;;;;5054169;28;20032;-68
2022/08/30 11:21:24;;;;;;;3.15;2.53;;;36.90;41.10;;;;;;5054025;28;20029;-70
2022/08/30 11:24:12;;;;;;;4.03;2.50;;;36.30;42.40;;;;;;5052939;28;20550;-69
2022/08/30 11:26:44;;;;;;;4.43;2.38;;;36.70;41.30;;;;;;5050827;28;20060;-69
2022/08/30 11:29:28;;;;;;;2.33;2.10;;;36.80;41.10;;;;;;5053965;28;20035;-68
2022/08/30 11:31:56;;;;;;;4.18;2.00;;;37.00;40.70;;;;;;5052933;28;20113;-68
2022/08/30 11:34:43;;;;;;;2.97;2.08;;;37.20;40.40;;;;;;5054049;28;20047;-68
2022/08/30 11:37:28;;;;;;;6.05;2.67;;;36.70;41.00;;;;;;5053454;28;20041;-70
2022/08/30 11:40:15;;;;;;;3.45;2.30;;;34.80;41.40;;;;;;5057064;28;20082;-70
2022/08/30 11:42:55;;;;;;;2.70;1.95;;;33.50;43.90;;;;;;5054538;28;20041;-69
2022/08/30 11:45:24;;;;;;;5.13;2.35;;;32.30;45.50;;;;;;5061435;28;20025;-69
2022/08/30 11:47:56;;;;;;;3.80;1.80;;;32.30;45.60;;;;;;5061734;28;20628;-68
2022/08/30 11:50:44;;;;;;;3.25;2.20;;;33.00;44.70;;;;;;5061212;28;20025;-68
2022/08/30 11:53:28;;;;;;;3.33;2.10;;;34.10;44.70;;;;;;5053230;28;20036;-68
2022/08/30 11:56:20;;;;;;;2.88;1.77;;;35.70;43.10;;;;;;5054073;28;20031;-68
2022/08/30 11:58:53;;;;;;;4.80;2.35;;;36.20;42.40;;;;;;5054137;28;20021;-68
2022/08/30 12:01:25;;;;;;;6.38;2.25;;;36.90;41.20;;;;;;5053280;28;20029;-69
2022/08/30 12:04:18;;;;;;;8.65;2.53;;;37.40;40.50;;;;;;5052319;28;20029;-68
2022/08/30 12:06:52;;;;;;;4.40;2.15;;;37.60;40.30;;;;;;5044836;28;20049;-68
2022/08/30 12:09:23;;;;;;;5.72;2.40;;;37.10;39.10;;;;;;5052370;28;20111;-68
2022/08/30 12:11:52;;;;;;;4.15;2.00;;;37.70;39.20;;;;;;5052469;28;20052;-68
2022/08/30 12:14:35;;;;;;;4.40;2.45;;;37.50;37.40;;;;;;5052582;28;20056;-68
2022/08/30 12:19:56;;;;;;;2.60;2.20;;;36.70;36.90;;;;;;5053748;28;20538;-69
2022/08/30 12:22:22;;;;;;;6.22;2.10;;;37.40;38.20;;;;;;5053598;28;20021;-67
2022/08/30 12:24:51;;;;;;;3.78;2.20;;;37.00;38.40;;;;;;5053340;28;20095;-68
2022/08/30 12:27:35;;;;;;;3.30;2.10;;;36.50;39.10;;;;;;5053525;28;20051;-67
2022/08/30 12:30:04;;;;;;;4.50;2.03;;;36.80;39.00;;;;;;5053229;28;20535;-67
2022/08/30 12:32:31;;;;;;;3.95;2.38;;;36.90;39.60;;;;;;5053776;28;20045;-67
2022/08/30 12:35:05;;;;;;;3.90;1.90;;;37.00;38.40;;;;;;5053264;28;20025;-67
2022/08/30 12:37:40;;;;;;;2.47;1.67;;;35.80;38.40;;;;;;5051794;28;20520;-68
2022/08/30 12:40:06;;;;;;;5.07;2.45;;;35.40;41.10;;;;;;5053637;28;20030;-69
2022/08/30 12:42:35;;;;;;;2.75;2.03;;;35.90;40.10;;;;;;5053727;28;20031;-68
2022/08/30 12:45:10;;;;;;;4.38;1.90;;;37.10;38.50;;;;;;5052053;28;20411;-68
2022/08/30 12:47:51;;;;;;;5.07;2.15;;;37.80;38.00;;;;;;5053248;28;20032;-67
2022/08/30 12:50:25;;;;;;;2.70;1.95;;;37.50;37.00;;;;;;5052566;28;20033;-66
2022/08/30 12:53:10;;;;;;;4.32;1.98;;;37.20;38.10;;;;;;5053061;28;20025;-68
2022/08/30 12:55:58;;;;;;;2.97;1.90;;;37.60;38.00;;;;;;5053149;28;20021;-68
2022/08/30 12:58:43;;;;;;;4.68;1.85;;;38.20;38.00;;;;;;5051959;28;20071;-67